Airfield :
LOGIN :

Register | Disclaimer

   EN    FR    IT 

 










Legend :    VFR   Marginal VFR   IFR   Intensive IFR   Very Intensive IFR
Visi :
Ceiling :
>= 8 km
>= 3000ft
5 to 8 km
1000 to 3000 ft
1500m to 5 km
500 to 1000 ft
800 to 1500m
200 to 500 ft
< 800m
< 200 ft
Symbols :   Thunderstorms  Fog  Heavy snow  Heavy precipitations  Wind > 20 kt
SIGMETs :     Misc.  Thunderstorms  Icing  Turbulence  Mountain Waves  Volcanic Ashes







- Airport Elevation : 7 ft
- IATA code : VCE


LIPZ - Marco Polo Int. Venezia

CURRENT METAR :
  • 260920Z 10007KT CAVOK 32/20 Q1022 NOSIG

EXPIRED METARs :
  • 260850Z 09007KT CAVOK 31/20 Q1022 NOSIG
  • 260820Z 08008KT CAVOK 31/20 Q1022 NOSIG
  • 260750Z 07006KT CAVOK 30/21 Q1022 NOSIG
  • 260720Z 06006KT CAVOK 29/21 Q1023 NOSIG
  • 260650Z 05006KT 020V080 CAVOK 29/20 Q1022 NOSIG

TAF TAF LIPZ
Valid from the 26 at 06:00 until the 27 at 12:00 UTC


260500Z 2606/2712 VRB06KT CAVOK
No reported NOTAMs for that airfield.



MET'MAP, your aeronautical weather chart ! - Copyright ORBIFLY December 2007 - Disclaimer

ORBIFLY MET'MAP TEAM :

Programming & Development : Alexandra Zaïnal
Concept & Development : Baudouin d'Aumeries
Co-Development & Prog : Marc-Olivier Méhu
Technical & hardware support : Manuel Goepfert

Contact : metmap@orbifly.com




SOURCES & CREDITS :

   NOAA